createdAt,value
2022-09-11T04:00:36.113Z,89.72
2022-09-11T04:01:36.049Z,89.83
2022-09-11T04:02:36.038Z,89.72
2022-09-11T04:03:36.025Z,89.83
2022-09-11T04:04:36.016Z,90.03
2022-09-11T04:05:36.030Z,89.83
2022-09-11T04:06:35.995Z,89.97
2022-09-11T04:07:35.980Z,89.87
2022-09-11T04:08:35.970Z,89.62
2022-09-11T04:09:35.957Z,89.56
2022-09-11T04:10:35.964Z,90.23
2022-09-11T04:11:40.968Z,90.07
2022-09-11T04:12:35.928Z,90.07
2022-09-11T04:13:35.913Z,90.17
2022-09-11T04:14:35.909Z,90.07
2022-09-11T04:15:35.911Z,90.27
2022-09-11T04:16:35.960Z,89.52
2022-09-11T04:17:35.874Z,89.66
2022-09-11T04:18:35.858Z,89.97
2022-09-11T04:19:35.889Z,89.97
2022-09-11T04:20:35.849Z,89.46
2022-09-11T04:21:35.827Z,89.66
2022-09-11T04:22:40.836Z,89.72
2022-09-11T04:23:35.807Z,89.87
2022-09-11T04:24:35.797Z,89.56
2022-09-11T04:25:35.778Z,89.46
2022-09-11T04:26:35.786Z,90.07
2022-09-11T04:27:35.769Z,90.03
2022-09-11T04:28:35.750Z,89.46
2022-09-11T04:29:35.741Z,89.46
2022-09-11T04:30:35.729Z,90.07
2022-09-11T04:31:35.761Z,90.27
2022-09-11T04:32:35.727Z,89.92
2022-09-11T04:33:40.717Z,89.97
2022-09-11T04:34:35.690Z,89.97
2022-09-11T04:35:35.667Z,89.62
2022-09-11T04:36:35.669Z,89.72
2022-09-11T04:37:35.646Z,89.46
2022-09-11T04:38:35.636Z,89.46
2022-09-11T04:39:35.691Z,89.56
2022-09-11T04:40:35.726Z,89.46
2022-09-11T04:41:35.611Z,89.46
2022-09-11T04:42:35.593Z,89.46
2022-09-11T04:43:35.582Z,89.56
2022-09-11T04:44:40.593Z,90.17
2022-09-11T04:45:35.601Z,90.17
2022-09-11T04:46:35.549Z,89.97
2022-09-11T04:47:35.545Z,90.07
2022-09-11T04:48:35.541Z,90.03
2022-09-11T04:49:35.516Z,90.12
2022-09-11T04:50:35.512Z,89.56
2022-09-11T04:51:35.489Z,89.46
2022-09-11T04:52:35.500Z,89.72
2022-09-11T04:53:35.466Z,89.66
2022-09-11T04:54:35.476Z,89.72
2022-09-11T04:55:40.478Z,89.62
2022-09-11T04:56:35.441Z,89.52
2022-09-11T04:57:35.425Z,89.52
2022-09-11T04:58:35.419Z,89.66
2022-09-11T04:59:35.410Z,89.83
2022-09-11T05:00:35.406Z,89.83
2022-09-11T05:01:35.380Z,89.22
2022-09-11T05:02:35.368Z,89.01
2022-09-11T05:03:35.357Z,89.66
2022-09-11T05:04:35.373Z,88.65
2022-09-11T05:05:35.370Z,88.51
2022-09-11T05:06:40.343Z,88.65
2022-09-11T05:07:35.311Z,88.35
2022-09-11T05:08:35.300Z,89.16
2022-09-11T05:09:35.294Z,90.07
2022-09-11T05:10:35.276Z,89.66
2022-09-11T05:11:35.279Z,89.87
2022-09-11T05:12:35.258Z,89.87
2022-09-11T05:13:36.580Z,89.76
2022-09-11T05:14:35.233Z,89.56
2022-09-11T05:15:35.223Z,90.07
2022-09-11T05:16:35.278Z,90.27
2022-09-11T05:17:40.231Z,90.17
2022-09-11T05:18:35.189Z,90.03
2022-09-11T05:19:35.177Z,89.56
2022-09-11T05:20:35.184Z,89.66
2022-09-11T05:21:35.172Z,89.62
2022-09-11T05:22:35.145Z,88.51
2022-09-11T05:23:35.132Z,88.41
2022-09-11T05:24:35.123Z,89.22
2022-09-11T05:25:35.112Z,89.01
2022-09-11T05:26:35.113Z,88.37
2022-09-11T05:27:35.091Z,87.96
2022-09-11T05:28:40.109Z,88.17
2022-09-11T05:29:35.333Z,88.67
2022-09-11T05:30:35.629Z,87.96
2022-09-11T05:31:35.112Z,88.37
2022-09-11T05:32:35.030Z,88.02
2022-09-11T05:33:35.021Z,87.46
2022-09-11T05:34:35.011Z,87.46
2022-09-11T05:35:34.998Z,87.41
2022-09-11T05:36:35.025Z,87.32
2022-09-11T05:37:34.977Z,86.91
2022-09-11T05:38:35.010Z,87.01
2022-09-11T05:39:40.000Z,86.71
2022-09-11T05:40:34.958Z,86.67
2022-09-11T05:41:34.943Z,86.51
2022-09-11T05:42:34.918Z,86.77
2022-09-11T05:43:34.909Z,86.67
2022-09-11T05:44:34.896Z,86.47
2022-09-11T05:45:34.946Z,86.36
2022-09-11T05:46:34.883Z,86.57
2022-09-11T05:47:34.878Z,86.57
2022-09-11T05:48:34.851Z,86.97
2022-09-11T05:49:34.844Z,86.77
2022-09-11T05:50:39.851Z,86.77
2022-09-11T05:51:34.834Z,86.97
2022-09-11T05:52:34.864Z,86.57
2022-09-11T05:53:34.895Z,86.87
2022-09-11T05:54:34.788Z,87.32
2022-09-11T05:55:34.778Z,87.27
2022-09-11T05:56:34.775Z,87.32
2022-09-11T05:57:34.762Z,87.12
2022-09-11T05:58:34.741Z,87.32
2022-09-11T05:59:34.734Z,87.32
2022-09-11T06:00:34.724Z,87.27
2022-09-11T06:01:39.792Z,86.71
2022-09-11T06:02:34.694Z,86.91
2022-09-11T06:03:34.689Z,87.01
2022-09-11T06:04:34.672Z,86.71
2022-09-11T06:05:34.664Z,87.52
2022-09-11T06:06:34.661Z,87.21
2022-09-11T06:07:34.641Z,86.87
2022-09-11T06:08:34.656Z,87.32
2022-09-11T06:09:34.621Z,86.91
2022-09-11T06:10:34.606Z,86.81
2022-09-11T06:11:34.608Z,87.48
2022-09-11T06:12:39.605Z,86.67
2022-09-11T06:13:34.575Z,86.97
2022-09-11T06:14:34.561Z,86.77
2022-09-11T06:15:46.609Z,86.41
2022-09-11T06:16:35.585Z,86.81
2022-09-11T06:17:34.546Z,86.87
2022-09-11T06:18:34.517Z,86.97
2022-09-11T06:19:34.508Z,86.57
2022-09-11T06:20:34.493Z,86.57
2022-09-11T06:21:34.495Z,86.87
2022-09-11T06:22:34.473Z,86.87
2022-09-11T06:23:39.583Z,86.57
2022-09-11T06:24:34.448Z,86.47
2022-09-11T06:25:34.440Z,86.57
2022-09-11T06:26:34.442Z,86.47
2022-09-11T06:27:34.421Z,85.96
2022-09-11T06:28:34.405Z,86.36
2022-09-11T06:29:34.396Z,86.07
2022-09-11T06:30:34.407Z,86.27
2022-09-11T06:31:34.473Z,86.16
2022-09-11T06:32:34.359Z,85.76
2022-09-11T06:33:34.407Z,86.36
2022-09-11T06:34:39.358Z,86.07
2022-09-11T06:35:34.326Z,86.16
2022-09-11T06:36:34.325Z,85.86
2022-09-11T06:37:34.428Z,85.62
2022-09-11T06:38:34.297Z,85.52
2022-09-11T06:39:34.305Z,85.62
2022-09-11T06:40:34.273Z,85.72
2022-09-11T06:41:34.270Z,85.62
2022-09-11T06:42:34.249Z,85.92
2022-09-11T06:43:34.315Z,86.13
2022-09-11T06:44:34.227Z,86.33
2022-09-11T06:45:39.268Z,86.53
2022-09-11T06:46:34.218Z,86.13
2022-09-11T06:47:34.193Z,85.92
2022-09-11T06:48:34.180Z,85.72
2022-09-11T06:49:34.172Z,85.72
2022-09-11T06:50:36.923Z,86.02
2022-09-11T06:51:34.159Z,86.22
2022-09-11T06:52:34.135Z,86.07
2022-09-11T06:53:34.212Z,85.62
2022-09-11T06:54:34.113Z,85.22
2022-09-11T06:55:34.127Z,85.52
2022-09-11T06:56:39.126Z,85.82
2022-09-11T06:57:34.081Z,85.82
2022-09-11T06:58:34.069Z,85.72
2022-09-11T06:59:34.062Z,85.82
2022-09-11T07:00:34.046Z,86.02
2022-09-11T07:01:34.308Z,86.13
2022-09-11T07:02:34.024Z,85.92
2022-09-11T07:03:34.107Z,85.31
2022-09-11T07:04:34.005Z,85.72
2022-09-11T07:05:33.991Z,86.13
2022-09-11T07:06:33.997Z,86.13
2022-09-11T07:07:39.018Z,85.92
2022-09-11T07:08:33.957Z,86.43
2022-09-11T07:09:33.948Z,86.22
2022-09-11T07:10:33.935Z,85.72
2022-09-11T07:11:33.942Z,85.72
2022-09-11T07:12:33.922Z,85.58
2022-09-11T07:13:37.325Z,86.08
2022-09-11T07:14:33.890Z,85.62
2022-09-11T07:15:33.883Z,85.78
2022-09-11T07:16:33.922Z,85.68
2022-09-11T07:17:33.996Z,85.68
2022-09-11T07:18:38.866Z,85.68
2022-09-11T07:19:33.844Z,85.38
2022-09-11T07:20:33.825Z,85.22
2022-09-11T07:21:33.813Z,85.17
2022-09-11T07:22:33.812Z,84.97
2022-09-11T07:23:33.874Z,84.88
2022-09-11T07:24:33.778Z,84.07
2022-09-11T07:25:33.829Z,83.93
2022-09-11T07:26:33.767Z,83.42
2022-09-11T07:27:33.767Z,83.83
2022-09-11T07:28:33.733Z,83.69
2022-09-11T07:29:38.746Z,83.12
2022-09-11T07:30:33.811Z,83.93
2022-09-11T07:31:33.713Z,83.18
2022-09-11T07:32:33.689Z,83.89
2022-09-11T07:33:33.793Z,83.28
2022-09-11T07:34:33.666Z,82.58
2022-09-11T07:35:33.656Z,82.78
2022-09-11T07:36:33.649Z,82.68
2022-09-11T07:37:33.645Z,83.39
2022-09-11T07:38:33.655Z,83.18
2022-09-11T07:39:33.619Z,82.78
2022-09-11T07:40:38.622Z,81.84
2022-09-11T07:41:33.593Z,82.54
2022-09-11T07:42:33.602Z,81.90
2022-09-11T07:43:33.665Z,82.10
2022-09-11T07:44:33.556Z,81.39
2022-09-11T07:45:33.566Z,81.49
2022-09-11T07:46:33.546Z,81.03
2022-09-11T07:47:33.546Z,80.89
2022-09-11T07:48:33.513Z,80.99
2022-09-11T07:49:33.534Z,80.99
2022-09-11T07:50:33.490Z,80.93
2022-09-11T07:51:38.521Z,81.09
2022-09-11T07:52:33.501Z,81.03
2022-09-11T07:53:33.516Z,80.29
2022-09-11T07:54:33.446Z,80.69
2022-09-11T07:55:33.436Z,79.99
2022-09-11T07:56:33.427Z,80.49
2022-09-11T07:57:33.424Z,79.54
2022-09-11T07:58:33.402Z,79.35
2022-09-11T07:59:33.410Z,79.41
2022-09-11T08:00:36.969Z,79.24
2022-09-11T08:01:33.442Z,79.41
2022-09-11T08:02:38.441Z,78.56
2022-09-11T08:03:33.433Z,78.12
2022-09-11T08:04:33.365Z,77.62
2022-09-11T08:05:33.379Z,76.08
2022-09-11T08:06:33.329Z,76.68
2022-09-11T08:07:33.313Z,76.82
2022-09-11T08:08:33.291Z,77.09
2022-09-11T08:09:33.284Z,76.34
2022-09-11T08:10:33.269Z,75.95
2022-09-11T08:11:33.259Z,75.95
2022-09-11T08:12:33.255Z,75.84
2022-09-11T08:13:38.257Z,75.84
2022-09-11T08:14:33.228Z,75.74
2022-09-11T08:15:33.232Z,75.78
2022-09-11T08:16:33.269Z,75.98
2022-09-11T08:17:33.200Z,76.18
2022-09-11T08:18:33.179Z,75.88
2022-09-11T08:19:33.167Z,75.92
2022-09-11T08:20:33.158Z,76.21
2022-09-11T08:21:33.148Z,76.62
2022-09-11T08:22:33.146Z,77.32
2022-09-11T08:23:33.211Z,76.92
2022-09-11T08:24:38.136Z,76.86
2022-09-11T08:25:33.125Z,76.86
2022-09-11T08:26:33.133Z,77.86
2022-09-11T08:27:33.089Z,77.56
2022-09-11T08:28:33.066Z,76.59
2022-09-11T08:29:33.056Z,77.39
2022-09-11T08:30:33.045Z,76.59
2022-09-11T08:31:33.081Z,76.39
2022-09-11T08:32:33.032Z,75.79
2022-09-11T08:33:33.065Z,75.79
2022-09-11T08:34:32.998Z,75.68
2022-09-11T08:35:38.033Z,75.89
2022-09-11T08:36:32.993Z,75.99
2022-09-11T08:37:32.979Z,76.93
2022-09-11T08:38:32.957Z,76.49
2022-09-11T08:39:32.944Z,76.79
2022-09-11T08:40:32.972Z,76.83
2022-09-11T08:41:32.944Z,77.23
2022-09-11T08:42:32.924Z,77.53
2022-09-11T08:43:32.903Z,77.13
2022-09-11T08:44:35.135Z,77.70
2022-09-11T08:45:33.949Z,78.34
2022-09-11T08:46:37.903Z,77.94
2022-09-11T08:47:32.863Z,78.14
2022-09-11T08:48:32.839Z,78.23
2022-09-11T08:49:32.883Z,78.64
2022-09-11T08:50:32.821Z,77.83
2022-09-11T08:51:32.831Z,78.74
2022-09-11T08:52:32.806Z,77.97
2022-09-11T08:53:32.948Z,78.47
2022-09-11T08:54:32.772Z,79.18
2022-09-11T08:55:32.766Z,79.38
2022-09-11T08:56:32.752Z,79.58
2022-09-11T08:57:37.776Z,79.35
2022-09-11T08:58:32.758Z,79.44
2022-09-11T08:59:32.727Z,79.24
2022-09-11T09:00:32.713Z,79.24
2022-09-11T09:01:32.737Z,79.14
2022-09-11T09:02:32.787Z,78.17
2022-09-11T09:03:32.672Z,78.84
2022-09-11T09:04:32.684Z,79.35
2022-09-11T09:05:32.657Z,79.35
2022-09-11T09:06:32.637Z,78.94
2022-09-11T09:07:32.686Z,79.35
2022-09-11T09:08:37.636Z,78.74
2022-09-11T09:09:35.124Z,77.43
2022-09-11T09:10:32.594Z,77.63
2022-09-11T09:11:32.616Z,77.23
2022-09-11T09:12:32.729Z,77.59
2022-09-11T09:13:32.559Z,77.43
2022-09-11T09:14:32.797Z,76.59
2022-09-11T09:15:32.539Z,76.29
2022-09-11T09:16:32.607Z,77.00
2022-09-11T09:17:32.534Z,77.59
2022-09-11T09:18:32.626Z,76.79
2022-09-11T09:19:37.525Z,76.89
2022-09-11T09:20:32.510Z,76.79
2022-09-11T09:21:32.469Z,77.50
2022-09-11T09:22:32.484Z,76.69
2022-09-11T09:23:32.459Z,76.69
2022-09-11T09:24:32.507Z,76.69
2022-09-11T09:25:32.434Z,76.49
2022-09-11T09:26:37.760Z,76.79
2022-09-11T09:27:33.425Z,76.69
2022-09-11T09:28:32.535Z,77.70
2022-09-11T09:29:32.379Z,77.23
2022-09-11T09:30:37.393Z,77.73
2022-09-11T09:31:32.385Z,76.43
2022-09-11T09:32:32.355Z,76.93
2022-09-11T09:33:32.367Z,77.70
2022-09-11T09:34:32.366Z,77.29
2022-09-11T09:35:32.313Z,76.49
2022-09-11T09:36:32.328Z,76.39
2022-09-11T09:37:32.290Z,76.39
2022-09-11T09:38:32.332Z,75.89
2022-09-11T09:39:32.270Z,76.49
2022-09-11T09:40:32.261Z,76.59
2022-09-11T09:41:37.345Z,76.19
2022-09-11T09:42:32.289Z,75.95
2022-09-11T09:43:32.265Z,75.65
2022-09-11T09:44:32.306Z,75.95
2022-09-11T09:45:32.279Z,75.42
2022-09-11T09:46:32.335Z,74.81
2022-09-11T09:47:32.193Z,75.01
2022-09-11T09:48:32.198Z,75.21
2022-09-11T09:49:32.154Z,74.81
2022-09-11T09:50:32.174Z,74.61
2022-09-11T09:51:32.134Z,73.91
2022-09-11T09:52:37.157Z,73.91
2022-09-11T09:53:32.111Z,73.57
2022-09-11T09:54:32.103Z,72.90
2022-09-11T09:55:32.094Z,73.27
2022-09-11T09:56:32.078Z,73.27
2022-09-11T09:57:32.066Z,72.97
2022-09-11T09:58:32.072Z,71.97
2022-09-11T09:59:32.045Z,71.56
2022-09-11T10:00:32.038Z,72.37
2022-09-11T10:01:32.091Z,71.33
2022-09-11T10:02:32.074Z,71.33
2022-09-11T10:03:37.037Z,71.20
2022-09-11T10:04:32.090Z,70.79
2022-09-11T10:05:31.981Z,70.69
2022-09-11T10:06:32.117Z,70.19
2022-09-11T10:07:31.963Z,69.16
2022-09-11T10:08:31.980Z,69.59
2022-09-11T10:09:31.942Z,70.09
2022-09-11T10:10:31.974Z,69.99
2022-09-11T10:11:31.922Z,69.99
2022-09-11T10:12:31.902Z,69.89
2022-09-11T10:13:31.927Z,69.59
2022-09-11T10:14:52.682Z,70.29
2022-09-11T10:15:32.952Z,70.96
2022-09-11T10:16:31.857Z,69.96
2022-09-11T10:17:31.845Z,70.66
2022-09-11T10:18:31.848Z,70.89
2022-09-11T10:19:31.826Z,71.16
2022-09-11T10:20:31.842Z,70.86
2022-09-11T10:21:31.802Z,71.36
2022-09-11T10:22:31.833Z,71.70
2022-09-11T10:23:31.810Z,70.89
2022-09-11T10:24:31.772Z,71.09
2022-09-11T10:25:36.777Z,71.30
2022-09-11T10:26:31.750Z,71.30
2022-09-11T10:27:31.733Z,71.39
2022-09-11T10:28:31.745Z,71.00
2022-09-11T10:29:31.738Z,71.20
2022-09-11T10:30:31.712Z,70.79
2022-09-11T10:31:31.692Z,69.66
2022-09-11T10:32:31.677Z,69.56
2022-09-11T10:33:31.667Z,69.66
2022-09-11T10:34:31.673Z,68.85
2022-09-11T10:35:31.646Z,68.85
2022-09-11T10:36:36.655Z,69.66
2022-09-11T10:37:31.632Z,69.02
2022-09-11T10:38:31.634Z,69.53
2022-09-11T10:39:31.610Z,69.53
2022-09-11T10:40:31.594Z,68.69
2022-09-11T10:41:31.579Z,67.69
2022-09-11T10:42:31.568Z,67.36
2022-09-11T10:43:31.560Z,67.09
2022-09-11T10:44:31.565Z,65.46
2022-09-11T10:45:31.624Z,63.43
2022-09-11T10:46:31.527Z,64.93
2022-09-11T10:47:36.532Z,63.83
2022-09-11T10:48:31.515Z,63.76
2022-09-11T10:49:31.527Z,63.83
2022-09-11T10:50:31.480Z,63.83
2022-09-11T10:51:31.466Z,63.36
2022-09-11T10:52:31.471Z,64.06
2022-09-11T10:53:31.458Z,63.83
2022-09-11T10:54:31.468Z,63.46
2022-09-11T10:55:31.616Z,64.06
2022-09-11T10:56:31.417Z,63.76
2022-09-11T10:57:31.405Z,64.26
2022-09-11T10:58:36.432Z,64.26
2022-09-11T10:59:31.380Z,64.49
2022-09-11T11:00:31.370Z,64.03
2022-09-11T11:01:31.437Z,65.33
2022-09-11T11:02:31.372Z,65.33
2022-09-11T11:03:31.346Z,65.42
2022-09-11T11:04:31.329Z,66.05
2022-09-11T11:05:31.311Z,66.05
2022-09-11T11:06:31.312Z,65.66
2022-09-11T11:07:31.292Z,65.66
2022-09-11T11:08:31.303Z,65.55
2022-09-11T11:09:36.318Z,65.89
2022-09-11T11:10:31.259Z,66.59
2022-09-11T11:11:31.248Z,66.89
2022-09-11T11:12:31.247Z,66.69
2022-09-11T11:13:31.242Z,66.25
2022-09-11T11:14:31.221Z,66.46
2022-09-11T11:15:31.202Z,66.55
2022-09-11T11:16:31.198Z,65.99
2022-09-11T11:17:31.185Z,65.86
2022-09-11T11:18:31.192Z,66.25
2022-09-11T11:19:31.158Z,66.49
2022-09-11T11:20:36.172Z,66.28
2022-09-11T11:21:31.138Z,66.25
2022-09-11T11:22:31.129Z,66.05
2022-09-11T11:23:31.128Z,65.55
2022-09-11T11:24:31.107Z,64.36
2022-09-11T11:25:31.113Z,65.02
2022-09-11T11:26:31.093Z,65.52
2022-09-11T11:27:31.072Z,64.32
2022-09-11T11:28:31.071Z,64.92
2022-09-11T11:29:31.051Z,64.72
2022-09-11T11:30:31.037Z,64.25
2022-09-11T11:31:36.051Z,64.25
2022-09-11T11:32:31.018Z,64.45
2022-09-11T11:33:31.016Z,64.25
2022-09-11T11:34:30.998Z,65.59
2022-09-11T11:35:30.981Z,65.48
2022-09-11T11:36:30.972Z,65.89
2022-09-11T11:37:30.963Z,65.78
2022-09-11T11:38:30.959Z,66.22
2022-09-11T11:39:30.949Z,65.19
2022-09-11T11:40:30.933Z,65.39
2022-09-11T11:41:30.934Z,65.28
2022-09-11T11:42:35.954Z,65.92
2022-09-11T11:43:30.897Z,65.92
2022-09-11T11:44:30.909Z,64.92
2022-09-11T11:45:30.904Z,64.92
2022-09-11T11:46:30.864Z,66.09
2022-09-11T11:47:30.851Z,66.62
2022-09-11T11:48:30.855Z,66.52
2022-09-11T11:49:30.841Z,66.89
2022-09-11T11:50:31.871Z,66.39
2022-09-11T11:51:30.811Z,66.89
2022-09-11T11:52:30.798Z,66.49
2022-09-11T11:53:35.817Z,67.19
2022-09-11T11:54:30.787Z,66.99
2022-09-11T11:55:30.767Z,67.09
2022-09-11T11:56:30.758Z,67.49
2022-09-11T11:57:30.762Z,68.49
2022-09-11T11:58:30.739Z,68.39
2022-09-11T11:59:30.732Z,69.49
2022-09-11T12:00:30.713Z,68.79
2022-09-11T12:01:30.718Z,69.32
2022-09-11T12:02:30.725Z,69.53
2022-09-11T12:03:30.774Z,71.06
2022-09-11T12:04:35.711Z,71.00
2022-09-11T12:05:30.660Z,71.09
2022-09-11T12:06:30.647Z,71.30
2022-09-11T12:07:30.639Z,71.50
2022-09-11T12:08:30.626Z,71.20
2022-09-11T12:09:33.597Z,71.13
2022-09-11T12:10:30.604Z,71.39
2022-09-11T12:11:30.613Z,70.89
2022-09-11T12:12:30.591Z,71.09
2022-09-11T12:13:30.599Z,71.59
2022-09-11T12:14:30.570Z,72.09
2022-09-11T12:15:35.617Z,71.20
2022-09-11T12:16:30.577Z,71.70
2022-09-11T12:17:30.528Z,71.09
2022-09-11T12:18:30.539Z,71.20
2022-09-11T12:19:30.541Z,71.39
2022-09-11T12:20:30.493Z,71.20
2022-09-11T12:21:30.544Z,71.09
2022-09-11T12:22:30.477Z,71.00
2022-09-11T12:23:30.464Z,70.89
2022-09-11T12:24:30.489Z,71.59
2022-09-11T12:25:30.438Z,71.59
2022-09-11T12:26:35.449Z,71.20
2022-09-11T12:27:30.428Z,71.39
2022-09-11T12:28:30.408Z,71.00
2022-09-11T12:29:30.427Z,70.79
2022-09-11T12:30:30.382Z,70.86
2022-09-11T12:31:30.393Z,69.35
2022-09-11T12:32:30.366Z,69.46
2022-09-11T12:33:30.354Z,69.96
2022-09-11T12:34:30.349Z,69.46
2022-09-11T12:35:30.327Z,69.35
2022-09-11T12:36:30.320Z,68.85
2022-09-11T12:37:35.327Z,69.53
2022-09-11T12:38:30.296Z,69.53
2022-09-11T12:39:30.298Z,69.35
2022-09-11T12:40:30.270Z,69.53
2022-09-11T12:41:30.266Z,68.55
2022-09-11T12:42:30.273Z,67.39
2022-09-11T12:43:30.237Z,67.46
2022-09-11T12:44:30.238Z,68.39
2022-09-11T12:45:30.290Z,67.36
2022-09-11T12:46:30.209Z,67.16
2022-09-11T12:47:30.204Z,68.69
2022-09-11T12:48:35.210Z,69.26
2022-09-11T12:49:30.211Z,69.16
2022-09-11T12:50:30.161Z,69.36
2022-09-11T12:51:30.148Z,69.56
2022-09-11T12:52:30.142Z,69.49
2022-09-11T12:53:30.185Z,69.49
2022-09-11T12:54:30.130Z,69.49
2022-09-11T12:55:30.193Z,69.19
2022-09-11T12:56:30.107Z,69.59
2022-09-11T12:57:30.091Z,69.36
2022-09-11T12:58:30.070Z,68.19
2022-09-11T12:59:35.096Z,69.09
2022-09-11T13:00:30.049Z,68.99
2022-09-11T13:01:30.169Z,69.09
2022-09-11T13:02:30.097Z,69.39
2022-09-11T13:03:30.017Z,69.19
2022-09-11T13:04:30.016Z,69.19
2022-09-11T13:05:30.003Z,69.29
2022-09-11T13:06:29.983Z,69.49
2022-09-11T13:07:29.974Z,69.53
2022-09-11T13:08:29.962Z,69.49
2022-09-11T13:09:29.975Z,69.49
2022-09-11T13:10:34.961Z,69.39
2022-09-11T13:11:29.925Z,69.79
2022-09-11T13:12:29.925Z,69.09
2022-09-11T13:13:29.918Z,69.79
2022-09-11T13:14:29.936Z,69.19
2022-09-11T13:15:29.897Z,69.99
2022-09-11T13:16:29.877Z,69.79
2022-09-11T13:17:29.879Z,69.79
2022-09-11T13:18:29.861Z,69.23
2022-09-11T13:19:29.838Z,69.93
2022-09-11T13:20:29.841Z,69.69
2022-09-11T13:21:34.838Z,69.93
2022-09-11T13:22:29.805Z,69.73
2022-09-11T13:23:29.799Z,69.82
2022-09-11T13:24:29.788Z,68.82
2022-09-11T13:25:29.781Z,69.42
2022-09-11T13:26:29.763Z,69.02
2022-09-11T13:27:29.747Z,68.92
2022-09-11T13:28:29.738Z,69.42
2022-09-11T13:29:29.783Z,69.42
2022-09-11T13:30:29.724Z,69.12
2022-09-11T13:31:29.779Z,69.53
2022-09-11T13:32:34.744Z,69.62
2022-09-11T13:33:29.695Z,70.12
2022-09-11T13:34:29.681Z,70.83
2022-09-11T13:35:29.673Z,71.03
2022-09-11T13:36:29.660Z,71.03
2022-09-11T13:37:29.644Z,71.33
2022-09-11T13:38:29.629Z,70.83
2022-09-11T13:39:29.615Z,70.83
2022-09-11T13:40:29.618Z,71.12
2022-09-11T13:41:29.600Z,70.83
2022-09-11T13:42:29.580Z,70.23
2022-09-11T13:43:34.603Z,70.93
2022-09-11T13:44:29.557Z,69.42
2022-09-11T13:45:29.657Z,69.82
2022-09-11T13:46:29.539Z,69.89
2022-09-11T13:47:29.547Z,68.99
2022-09-11T13:48:29.604Z,69.09
2022-09-11T13:49:29.528Z,69.39
2022-09-11T13:50:29.520Z,68.76
2022-09-11T13:51:29.487Z,68.26
2022-09-11T13:52:29.491Z,67.46
2022-09-11T13:53:29.480Z,67.86
2022-09-11T13:54:34.469Z,68.59
2022-09-11T13:55:29.453Z,68.86
2022-09-11T13:56:29.426Z,69.06
2022-09-11T13:57:29.415Z,69.26
2022-09-11T13:58:29.404Z,69.16
2022-09-11T13:59:29.395Z,69.16
2022-09-11T14:00:29.398Z,69.16
2022-09-11T14:01:29.481Z,69.46
2022-09-11T14:02:29.395Z,68.66
2022-09-11T14:03:29.351Z,68.16
2022-09-11T14:04:29.355Z,68.86
2022-09-11T14:05:34.362Z,68.86
2022-09-11T14:06:29.315Z,68.96
2022-09-11T14:07:29.306Z,68.59
2022-09-11T14:08:29.294Z,68.66
2022-09-11T14:09:29.284Z,69.39
2022-09-11T14:10:29.289Z,68.69
2022-09-11T14:11:29.266Z,68.76
2022-09-11T14:12:29.263Z,68.86
2022-09-11T14:13:29.240Z,68.86
2022-09-11T14:14:29.227Z,68.55
2022-09-11T14:15:29.229Z,67.16
2022-09-11T14:16:34.226Z,68.66
2022-09-11T14:17:29.194Z,68.05
2022-09-11T14:18:29.183Z,67.05
2022-09-11T14:19:29.186Z,67.25
2022-09-11T14:20:29.190Z,66.86
2022-09-11T14:21:29.156Z,67.25
2022-09-11T14:22:29.140Z,67.05
2022-09-11T14:23:29.144Z,67.16
2022-09-11T14:24:29.132Z,66.63
2022-09-11T14:25:29.126Z,66.32
2022-09-11T14:26:29.093Z,66.32
2022-09-11T14:27:34.107Z,66.22
2022-09-11T14:28:29.073Z,66.42
2022-09-11T14:29:29.067Z,66.52
2022-09-11T14:30:30.645Z,65.33
2022-09-11T14:31:29.087Z,65.49
2022-09-11T14:32:29.035Z,65.22
2022-09-11T14:33:29.019Z,65.49
2022-09-11T14:34:29.014Z,65.79
2022-09-11T14:35:29.025Z,65.19
2022-09-11T14:36:29.008Z,65.49
2022-09-11T14:37:28.981Z,65.49
2022-09-11T14:38:33.986Z,65.49
2022-09-11T14:39:28.955Z,65.49
2022-09-11T14:40:28.965Z,66.02
2022-09-11T14:41:28.933Z,65.79
2022-09-11T14:42:28.919Z,65.62
2022-09-11T14:43:28.911Z,65.92
2022-09-11T14:44:28.899Z,66.02
2022-09-11T14:45:28.920Z,66.13
2022-09-11T14:46:28.940Z,65.52
2022-09-11T14:47:28.867Z,65.52
2022-09-11T14:48:28.878Z,65.72
2022-09-11T14:49:33.869Z,65.42
2022-09-11T14:50:28.852Z,65.72
2022-09-11T14:51:28.831Z,65.59
2022-09-11T14:52:28.832Z,65.39
2022-09-11T14:53:28.802Z,65.69
2022-09-11T14:54:28.793Z,65.49
2022-09-11T14:55:28.791Z,65.59
2022-09-11T14:56:28.768Z,65.39
2022-09-11T14:57:28.760Z,65.49
2022-09-11T14:58:28.750Z,65.49
2022-09-11T14:59:28.737Z,64.89
2022-09-11T15:00:33.788Z,65.69
2022-09-11T15:01:28.739Z,66.39
2022-09-11T15:02:28.704Z,65.89
2022-09-11T15:03:28.739Z,65.42
2022-09-11T15:04:28.682Z,66.02
2022-09-11T15:05:28.682Z,66.32
2022-09-11T15:06:28.664Z,65.62
2022-09-11T15:07:28.656Z,65.83
2022-09-11T15:08:28.664Z,66.32
2022-09-11T15:09:28.631Z,66.22
2022-09-11T15:10:28.630Z,66.13
2022-09-11T15:11:38.747Z,66.32
2022-09-11T15:12:29.592Z,65.72
2022-09-11T15:13:28.586Z,66.32
2022-09-11T15:14:54.330Z,66.16
2022-09-11T15:15:29.584Z,66.46
2022-09-11T15:16:28.592Z,66.46
2022-09-11T15:17:28.540Z,66.16
2022-09-11T15:18:28.529Z,66.96
2022-09-11T15:19:28.520Z,66.46
2022-09-11T15:20:28.519Z,66.96
2022-09-11T15:21:28.500Z,66.46
2022-09-11T15:22:33.507Z,66.66
2022-09-11T15:23:28.475Z,66.96
2022-09-11T15:24:28.485Z,66.75
2022-09-11T15:25:28.471Z,66.96
2022-09-11T15:26:28.442Z,67.16
2022-09-11T15:27:28.433Z,66.25
2022-09-11T15:28:28.418Z,66.96
2022-09-11T15:29:31.532Z,66.78
2022-09-11T15:30:28.396Z,67.16
2022-09-11T15:31:28.446Z,67.16
2022-09-11T15:32:28.379Z,67.05
2022-09-11T15:33:33.389Z,67.66
2022-09-11T15:34:28.352Z,67.36
2022-09-11T15:35:32.207Z,66.46
2022-09-11T15:36:28.349Z,66.86
2022-09-11T15:37:28.327Z,67.36
2022-09-11T15:38:28.309Z,66.75
2022-09-11T15:39:28.303Z,66.75
2022-09-11T15:40:28.307Z,66.55
2022-09-11T15:41:28.292Z,65.86
2022-09-11T15:42:28.264Z,66.05
2022-09-11T15:43:28.255Z,65.86
2022-09-11T15:44:33.278Z,65.75
2022-09-11T15:45:28.286Z,65.75
2022-09-11T15:46:28.230Z,66.55
2022-09-11T15:47:28.218Z,66.55
2022-09-11T15:48:28.201Z,65.92
2022-09-11T15:49:28.197Z,65.75
2022-09-11T15:50:28.176Z,65.42
2022-09-11T15:51:28.178Z,65.75
2022-09-11T15:52:28.155Z,64.92
2022-09-11T15:53:28.144Z,65.72
2022-09-11T15:54:28.130Z,66.22
2022-09-11T15:55:33.160Z,66.13
2022-09-11T15:56:28.122Z,66.13
2022-09-11T15:57:28.098Z,66.22
2022-09-11T15:58:28.086Z,65.22
2022-09-11T15:59:28.091Z,65.72
2022-09-11T16:00:28.078Z,65.42
2022-09-11T16:01:28.072Z,65.12
2022-09-11T16:02:28.061Z,66.32
2022-09-11T16:03:28.033Z,65.52
2022-09-11T16:04:28.027Z,65.92
2022-09-11T16:05:28.012Z,65.92
2022-09-11T16:06:33.034Z,66.02
2022-09-11T16:07:27.995Z,65.42
2022-09-11T16:08:27.973Z,65.02
2022-09-11T16:09:27.964Z,65.22
2022-09-11T16:10:27.955Z,65.45
2022-09-11T16:11:27.977Z,65.42
2022-09-11T16:12:27.929Z,65.52
2022-09-11T16:13:27.921Z,65.52
2022-09-11T16:14:27.907Z,65.52
2022-09-11T16:15:27.904Z,64.92
2022-09-11T16:16:27.897Z,64.42
2022-09-11T16:17:32.909Z,65.52
2022-09-11T16:18:27.864Z,65.42
2022-09-11T16:19:27.896Z,65.52
2022-09-11T16:20:27.841Z,64.32
2022-09-11T16:21:27.842Z,64.72
2022-09-11T16:22:27.842Z,64.72
2022-09-11T16:23:27.818Z,64.12
2022-09-11T16:24:27.796Z,63.42
2022-09-11T16:25:27.792Z,64.03
2022-09-11T16:26:27.788Z,63.72
2022-09-11T16:27:27.790Z,63.92
2022-09-11T16:28:32.827Z,63.62
2022-09-11T16:29:43.994Z,64.22
2022-09-11T16:30:46.664Z,64.52
2022-09-11T16:31:28.835Z,64.32
2022-09-11T16:32:27.715Z,64.55
2022-09-11T16:33:27.704Z,64.12
2022-09-11T16:34:27.688Z,63.65
2022-09-11T16:35:27.712Z,64.15
2022-09-11T16:36:27.669Z,64.52
2022-09-11T16:37:27.704Z,64.83
2022-09-11T16:38:27.645Z,65.42
2022-09-11T16:39:32.662Z,64.32
2022-09-11T16:40:27.626Z,64.36
2022-09-11T16:41:27.620Z,64.86
2022-09-11T16:42:27.616Z,64.55
2022-09-11T16:43:27.608Z,65.83
2022-09-11T16:44:27.579Z,65.36
2022-09-11T16:45:27.585Z,65.45
2022-09-11T16:46:27.559Z,65.36
2022-09-11T16:47:27.562Z,64.86
2022-09-11T16:48:27.534Z,64.95
2022-09-11T16:49:27.523Z,65.36
2022-09-11T16:50:32.556Z,65.86
2022-09-11T16:51:27.503Z,65.75
2022-09-11T16:52:27.501Z,65.55